sensor_id;sensor_type;location;lat;lon;timestamp;temperature;humidity
22503;DHT22;11418;48.118;9.992;2023-04-29T00:00:14;10.80;99.90
22503;DHT22;11418;48.118;9.992;2023-04-29T00:04:15;11.00;99.90
22503;DHT22;11418;48.118;9.992;2023-04-29T00:08:15;10.80;99.90
22503;DHT22;11418;48.118;9.992;2023-04-29T00:12:15;10.70;99.90
22503;DHT22;11418;48.118;9.992;2023-04-29T00:16:17;10.60;99.90
22503;DHT22;11418;48.118;9.992;2023-04-29T00:20:18;10.50;99.90
22503;DHT22;11418;48.118;9.992;2023-04-29T00:24:18;10.50;99.90
22503;DHT22;11418;48.118;9.992;2023-04-29T00:28:19;10.30;99.90
22503;DHT22;11418;48.118;9.992;2023-04-29T00:32:19;10.30;99.90
22503;DHT22;11418;48.118;9.992;2023-04-29T00:36:21;10.20;99.90
22503;DHT22;11418;48.118;9.992;2023-04-29T00:40:22;10.20;99.90
22503;DHT22;11418;48.118;9.992;2023-04-29T00:44:22;10.20;99.90
22503;DHT22;11418;48.118;9.992;2023-04-29T00:48:22;10.30;99.90
22503;DHT22;11418;48.118;9.992;2023-04-29T00:52:23;10.20;99.90
22503;DHT22;11418;48.118;9.992;2023-04-29T00:56:24;10.50;99.90
22503;DHT22;11418;48.118;9.992;2023-04-29T01:00:25;10.50;99.90
22503;DHT22;11418;48.118;9.992;2023-04-29T01:04:26;10.20;99.90
22503;DHT22;11418;48.118;9.992;2023-04-29T01:08:33;10.30;99.90
22503;DHT22;11418;48.118;9.992;2023-04-29T01:16:59;10.40;99.90
22503;DHT22;11418;48.118;9.992;2023-04-29T01:21:01;10.60;99.90
22503;DHT22;11418;48.118;9.992;2023-04-29T01:25:01;11.00;99.90
22503;DHT22;11418;48.118;9.992;2023-04-29T01:37:51;11.90;99.90
22503;DHT22;11418;48.118;9.992;2023-04-29T01:42:00;11.70;99.90
22503;DHT22;11418;48.118;9.992;2023-04-29T01:46:03;11.80;99.90
22503;DHT22;11418;48.118;9.992;2023-04-29T01:50:04;12.00;99.90
22503;DHT22;11418;48.118;9.992;2023-04-29T01:54:05;11.90;99.90
22503;DHT22;11418;48.118;9.992;2023-04-29T01:58:05;12.10;99.90
22503;DHT22;11418;48.118;9.992;2023-04-29T02:02:06;12.20;99.90
22503;DHT22;11418;48.118;9.992;2023-04-29T02:06:07;12.40;99.90
22503;DHT22;11418;48.118;9.992;2023-04-29T02:10:07;12.30;99.90
22503;DHT22;11418;48.118;9.992;2023-04-29T02:14:08;12.00;99.90
22503;DHT22;11418;48.118;9.992;2023-04-29T02:18:08;12.00;99.90
22503;DHT22;11418;48.118;9.992;2023-04-29T02:22:09;11.90;99.90
22503;DHT22;11418;48.118;9.992;2023-04-29T02:26:11;12.20;99.90
22503;DHT22;11418;48.118;9.992;2023-04-29T02:30:13;12.20;99.90
22503;DHT22;11418;48.118;9.992;2023-04-29T02:34:13;12.40;99.90
22503;DHT22;11418;48.118;9.992;2023-04-29T02:38:14;12.50;99.90
22503;DHT22;11418;48.118;9.992;2023-04-29T02:42:14;12.60;99.90
22503;DHT22;11418;48.118;9.992;2023-04-29T02:46:14;12.70;99.90
22503;DHT22;11418;48.118;9.992;2023-04-29T02:50:15;12.60;99.90
22503;DHT22;11418;48.118;9.992;2023-04-29T02:54:16;12.70;99.90
22503;DHT22;11418;48.118;9.992;2023-04-29T02:58:16;12.70;99.90
22503;DHT22;11418;48.118;9.992;2023-04-29T03:02:17;12.80;99.90
22503;DHT22;11418;48.118;9.992;2023-04-29T03:06:17;12.70;99.90
22503;DHT22;11418;48.118;9.992;2023-04-29T03:10:18;12.60;99.90
22503;DHT22;11418;48.118;9.992;2023-04-29T03:14:19;12.60;99.90
22503;DHT22;11418;48.118;9.992;2023-04-29T03:18:19;12.60;99.90
22503;DHT22;11418;48.118;9.992;2023-04-29T03:22:19;12.70;99.90
22503;DHT22;11418;48.118;9.992;2023-04-29T03:26:20;12.50;99.90
22503;DHT22;11418;48.118;9.992;2023-04-29T03:30:23;12.30;99.90
22503;DHT22;11418;48.118;9.992;2023-04-29T03:34:23;12.50;99.90
22503;DHT22;11418;48.118;9.992;2023-04-29T03:38:24;12.70;99.90
22503;DHT22;11418;48.118;9.992;2023-04-29T03:42:25;12.30;99.90
22503;DHT22;11418;48.118;9.992;2023-04-29T03:46:26;12.60;99.90
22503;DHT22;11418;48.118;9.992;2023-04-29T03:50:26;12.40;99.90
22503;DHT22;11418;48.118;9.992;2023-04-29T03:54:26;12.70;99.90
22503;DHT22;11418;48.118;9.992;2023-04-29T03:58:27;12.60;99.90
22503;DHT22;11418;48.118;9.992;2023-04-29T04:02:27;12.50;99.90
22503;DHT22;11418;48.118;9.992;2023-04-29T04:06:28;12.30;99.90
22503;DHT22;11418;48.118;9.992;2023-04-29T04:10:28;12.30;99.90
22503;DHT22;11418;48.118;9.992;2023-04-29T04:14:29;12.20;99.90
22503;DHT22;11418;48.118;9.992;2023-04-29T04:18:29;12.20;99.90
22503;DHT22;11418;48.118;9.992;2023-04-29T04:22:30;12.40;99.90
22503;DHT22;11418;48.118;9.992;2023-04-29T04:26:30;12.50;99.90
22503;DHT22;11418;48.118;9.992;2023-04-29T04:30:31;12.50;99.90
22503;DHT22;11418;48.118;9.992;2023-04-29T04:34:31;12.40;99.90
22503;DHT22;11418;48.118;9.992;2023-04-29T04:38:32;12.70;99.90
22503;DHT22;11418;48.118;9.992;2023-04-29T04:42:33;12.60;99.90
22503;DHT22;11418;48.118;9.992;2023-04-29T04:46:33;12.40;99.90
22503;DHT22;11418;48.118;9.992;2023-04-29T04:50:34;12.50;99.90
22503;DHT22;11418;48.118;9.992;2023-04-29T04:54:34;12.60;99.90
22503;DHT22;11418;48.118;9.992;2023-04-29T04:58:35;12.60;99.90
22503;DHT22;11418;48.118;9.992;2023-04-29T05:02:35;12.70;99.90
22503;DHT22;11418;48.118;9.992;2023-04-29T05:06:36;12.60;99.90
22503;DHT22;11418;48.118;9.992;2023-04-29T05:10:37;12.70;99.90
22503;DHT22;11418;48.118;9.992;2023-04-29T05:14:37;12.90;99.90
22503;DHT22;11418;48.118;9.992;2023-04-29T05:18:38;13.10;99.90
22503;DHT22;11418;48.118;9.992;2023-04-29T05:22:38;13.30;99.90
22503;DHT22;11418;48.118;9.992;2023-04-29T05:26:39;13.50;99.90
22503;DHT22;11418;48.118;9.992;2023-04-29T05:30:39;13.50;99.90
22503;DHT22;11418;48.118;9.992;2023-04-29T05:34:40;13.60;99.90
22503;DHT22;11418;48.118;9.992;2023-04-29T05:38:40;13.90;99.90
22503;DHT22;11418;48.118;9.992;2023-04-29T05:42:41;13.90;99.90
22503;DHT22;11418;48.118;9.992;2023-04-29T05:46:41;14.40;99.90
22503;DHT22;11418;48.118;9.992;2023-04-29T05:50:42;14.50;99.90
22503;DHT22;11418;48.118;9.992;2023-04-29T05:54:43;14.80;99.90
22503;DHT22;11418;48.118;9.992;2023-04-29T05:58:43;15.00;99.90
22503;DHT22;11418;48.118;9.992;2023-04-29T06:02:44;15.10;99.90
22503;DHT22;11418;48.118;9.992;2023-04-29T06:06:45;15.60;99.90
22503;DHT22;11418;48.118;9.992;2023-04-29T06:10:45;16.70;99.90
22503;DHT22;11418;48.118;9.992;2023-04-29T06:14:46;16.80;99.90
22503;DHT22;11418;48.118;9.992;2023-04-29T06:18:46;16.80;99.90
22503;DHT22;11418;48.118;9.992;2023-04-29T06:22:47;16.40;99.90
22503;DHT22;11418;48.118;9.992;2023-04-29T06:26:47;16.50;99.90
22503;DHT22;11418;48.118;9.992;2023-04-29T06:30:48;17.50;99.90
22503;DHT22;11418;48.118;9.992;2023-04-29T06:34:49;17.60;99.90
22503;DHT22;11418;48.118;9.992;2023-04-29T06:38:50;16.70;99.90
22503;DHT22;11418;48.118;9.992;2023-04-29T06:42:50;17.20;99.90
22503;DHT22;11418;48.118;9.992;2023-04-29T06:46:51;17.70;99.90
22503;DHT22;11418;48.118;9.992;2023-04-29T06:50:53;18.10;99.90
22503;DHT22;11418;48.118;9.992;2023-04-29T06:54:53;18.60;99.90
22503;DHT22;11418;48.118;9.992;2023-04-29T06:58:54;18.80;99.90
22503;DHT22;11418;48.118;9.992;2023-04-29T07:02:54;18.80;99.90
22503;DHT22;11418;48.118;9.992;2023-04-29T07:06:55;19.40;99.90
22503;DHT22;11418;48.118;9.992;2023-04-29T07:10:56;19.90;99.90
22503;DHT22;11418;48.118;9.992;2023-04-29T07:14:57;20.00;99.90
22503;DHT22;11418;48.118;9.992;2023-04-29T07:18:57;20.50;99.90
22503;DHT22;11418;48.118;9.992;2023-04-29T07:22:58;20.60;99.90
22503;DHT22;11418;48.118;9.992;2023-04-29T07:26:58;20.30;99.90
22503;DHT22;11418;48.118;9.992;2023-04-29T07:30:59;20.10;99.90
22503;DHT22;11418;48.118;9.992;2023-04-29T07:34:59;20.50;99.90
22503;DHT22;11418;48.118;9.992;2023-04-29T07:39:00;19.50;99.90
22503;DHT22;11418;48.118;9.992;2023-04-29T07:43:03;18.90;99.90
22503;DHT22;11418;48.118;9.992;2023-04-29T07:47:06;18.80;99.90
22503;DHT22;11418;48.118;9.992;2023-04-29T07:51:11;19.50;99.90
22503;DHT22;11418;48.118;9.992;2023-04-29T07:55:11;19.80;99.90
22503;DHT22;11418;48.118;9.992;2023-04-29T07:59:12;20.70;99.90
22503;DHT22;11418;48.118;9.992;2023-04-29T08:03:12;21.40;99.90
22503;DHT22;11418;48.118;9.992;2023-04-29T08:07:13;20.70;99.90
22503;DHT22;11418;48.118;9.992;2023-04-29T08:11:17;19.90;99.90
22503;DHT22;11418;48.118;9.992;2023-04-29T08:15:17;19.80;99.90
22503;DHT22;11418;48.118;9.992;2023-04-29T08:19:18;19.60;99.90
22503;DHT22;11418;48.118;9.992;2023-04-29T08:23:18;19.00;99.90
22503;DHT22;11418;48.118;9.992;2023-04-29T08:27:18;18.50;99.90
22503;DHT22;11418;48.118;9.992;2023-04-29T08:31:21;18.30;99.90
22503;DHT22;11418;48.118;9.992;2023-04-29T08:35:21;18.20;99.90
22503;DHT22;11418;48.118;9.992;2023-04-29T08:39:22;17.80;99.90
22503;DHT22;11418;48.118;9.992;2023-04-29T08:43:22;17.90;99.90
22503;DHT22;11418;48.118;9.992;2023-04-29T08:47:23;18.20;99.90
22503;DHT22;11418;48.118;9.992;2023-04-29T08:51:23;19.00;99.90
22503;DHT22;11418;48.118;9.992;2023-04-29T08:55:24;19.10;99.90
22503;DHT22;11418;48.118;9.992;2023-04-29T08:59:25;19.00;99.90
22503;DHT22;11418;48.118;9.992;2023-04-29T09:03:33;18.30;99.90
22503;DHT22;11418;48.118;9.992;2023-04-29T09:07:35;17.10;99.90
22503;DHT22;11418;48.118;9.992;2023-04-29T09:11:36;16.60;99.90
22503;DHT22;11418;48.118;9.992;2023-04-29T09:15:37;16.30;99.90
22503;DHT22;11418;48.118;9.992;2023-04-29T09:19:39;16.20;99.90
22503;DHT22;11418;48.118;9.992;2023-04-29T09:23:40;16.10;99.90
22503;DHT22;11418;48.118;9.992;2023-04-29T09:27:40;16.30;99.90
22503;DHT22;11418;48.118;9.992;2023-04-29T09:31:41;17.90;99.90
22503;DHT22;11418;48.118;9.992;2023-04-29T09:35:42;18.90;99.90
22503;DHT22;11418;48.118;9.992;2023-04-29T09:39:42;19.10;99.90
22503;DHT22;11418;48.118;9.992;2023-04-29T09:43:43;19.50;99.90
22503;DHT22;11418;48.118;9.992;2023-04-29T09:47:43;19.50;99.90
22503;DHT22;11418;48.118;9.992;2023-04-29T09:51:51;19.50;99.90
22503;DHT22;11418;48.118;9.992;2023-04-29T09:59:52;20.20;99.90
22503;DHT22;11418;48.118;9.992;2023-04-29T10:03:52;20.30;99.90
22503;DHT22;11418;48.118;9.992;2023-04-29T10:07:53;20.30;99.90
22503;DHT22;11418;48.118;9.992;2023-04-29T10:11:54;20.10;99.90
22503;DHT22;11418;48.118;9.992;2023-04-29T10:20:08;19.50;99.90
22503;DHT22;11418;48.118;9.992;2023-04-29T10:24:08;19.50;99.90
22503;DHT22;11418;48.118;9.992;2023-04-29T10:28:13;19.90;99.90
22503;DHT22;11418;48.118;9.992;2023-04-29T10:32:15;20.80;99.90
22503;DHT22;11418;48.118;9.992;2023-04-29T10:36:16;20.00;99.90
22503;DHT22;11418;48.118;9.992;2023-04-29T10:40:18;21.00;99.90
22503;DHT22;11418;48.118;9.992;2023-04-29T10:44:21;21.10;99.90
22503;DHT22;11418;48.118;9.992;2023-04-29T10:48:23;20.10;99.90
22503;DHT22;11418;48.118;9.992;2023-04-29T10:52:24;20.80;99.90
22503;DHT22;11418;48.118;9.992;2023-04-29T10:56:39;19.80;99.90
22503;DHT22;11418;48.118;9.992;2023-04-29T11:00:40;20.30;99.90
22503;DHT22;11418;48.118;9.992;2023-04-29T11:09:14;22.00;99.90
22503;DHT22;11418;48.118;9.992;2023-04-29T11:13:28;21.00;99.90
22503;DHT22;11418;48.118;9.992;2023-04-29T11:17:35;20.90;99.90
22503;DHT22;11418;48.118;9.992;2023-04-29T11:21:37;20.70;99.90
22503;DHT22;11418;48.118;9.992;2023-04-29T11:25:38;21.10;99.90
22503;DHT22;11418;48.118;9.992;2023-04-29T11:29:38;21.50;99.90
22503;DHT22;11418;48.118;9.992;2023-04-29T11:33:39;22.80;99.90
22503;DHT22;11418;48.118;9.992;2023-04-29T11:37:40;22.10;99.90
22503;DHT22;11418;48.118;9.992;2023-04-29T11:41:41;21.60;99.90
22503;DHT22;11418;48.118;9.992;2023-04-29T11:45:43;21.30;99.90
22503;DHT22;11418;48.118;9.992;2023-04-29T11:49:44;20.60;99.90
22503;DHT22;11418;48.118;9.992;2023-04-29T11:53:44;20.00;99.90
22503;DHT22;11418;48.118;9.992;2023-04-29T11:57:45;21.10;99.90
22503;DHT22;11418;48.118;9.992;2023-04-29T12:01:48;22.50;99.90
22503;DHT22;11418;48.118;9.992;2023-04-29T12:05:55;21.30;99.90
22503;DHT22;11418;48.118;9.992;2023-04-29T12:09:55;19.80;99.90
22503;DHT22;11418;48.118;9.992;2023-04-29T12:13:57;19.50;99.90
22503;DHT22;11418;48.118;9.992;2023-04-29T12:17:58;20.70;99.90
22503;DHT22;11418;48.118;9.992;2023-04-29T12:21:59;20.40;99.90
22503;DHT22;11418;48.118;9.992;2023-04-29T12:26:02;21.10;99.90
22503;DHT22;11418;48.118;9.992;2023-04-29T12:30:09;22.40;99.90
22503;DHT22;11418;48.118;9.992;2023-04-29T12:34:10;22.50;99.90
22503;DHT22;11418;48.118;9.992;2023-04-29T12:38:14;23.40;99.90
22503;DHT22;11418;48.118;9.992;2023-04-29T12:42:14;23.60;99.90
22503;DHT22;11418;48.118;9.992;2023-04-29T12:46:16;23.70;99.90
22503;DHT22;11418;48.118;9.992;2023-04-29T12:50:16;22.90;99.50
22503;DHT22;11418;48.118;9.992;2023-04-29T12:54:17;22.80;99.90
22503;DHT22;11418;48.118;9.992;2023-04-29T12:58:18;23.70;99.80
22503;DHT22;11418;48.118;9.992;2023-04-29T13:02:18;22.50;99.90
22503;DHT22;11418;48.118;9.992;2023-04-29T13:06:19;21.00;99.90
22503;DHT22;11418;48.118;9.992;2023-04-29T13:10:19;22.90;99.90
22503;DHT22;11418;48.118;9.992;2023-04-29T13:14:20;23.30;99.90
22503;DHT22;11418;48.118;9.992;2023-04-29T13:18:21;23.50;99.90
22503;DHT22;11418;48.118;9.992;2023-04-29T13:22:21;23.80;99.90
22503;DHT22;11418;48.118;9.992;2023-04-29T13:26:22;24.90;95.50
22503;DHT22;11418;48.118;9.992;2023-04-29T13:30:24;22.60;98.90
22503;DHT22;11418;48.118;9.992;2023-04-29T13:34:24;21.20;99.90
22503;DHT22;11418;48.118;9.992;2023-04-29T13:38:25;20.40;99.90
22503;DHT22;11418;48.118;9.992;2023-04-29T13:42:25;19.50;99.90
22503;DHT22;11418;48.118;9.992;2023-04-29T13:46:26;18.90;99.90
22503;DHT22;11418;48.118;9.992;2023-04-29T13:50:27;20.10;99.90
22503;DHT22;11418;48.118;9.992;2023-04-29T13:54:28;21.20;99.90
22503;DHT22;11418;48.118;9.992;2023-04-29T13:58:28;20.00;99.90
22503;DHT22;11418;48.118;9.992;2023-04-29T14:02:29;20.00;99.90
22503;DHT22;11418;48.118;9.992;2023-04-29T14:06:29;20.50;99.90
22503;DHT22;11418;48.118;9.992;2023-04-29T14:10:31;21.50;99.90
22503;DHT22;11418;48.118;9.992;2023-04-29T14:14:31;20.10;99.90
22503;DHT22;11418;48.118;9.992;2023-04-29T14:18:32;20.00;99.90
22503;DHT22;11418;48.118;9.992;2023-04-29T14:22:32;21.30;99.90
22503;DHT22;11418;48.118;9.992;2023-04-29T14:26:33;21.80;99.90
22503;DHT22;11418;48.118;9.992;2023-04-29T14:30:33;22.40;99.90
22503;DHT22;11418;48.118;9.992;2023-04-29T14:34:34;23.00;99.90
22503;DHT22;11418;48.118;9.992;2023-04-29T14:38:34;23.60;99.00
22503;DHT22;11418;48.118;9.992;2023-04-29T14:42:35;22.90;99.90
22503;DHT22;11418;48.118;9.992;2023-04-29T14:46:35;21.80;99.90
22503;DHT22;11418;48.118;9.992;2023-04-29T14:50:36;20.60;99.90
22503;DHT22;11418;48.118;9.992;2023-04-29T14:54:36;19.70;99.90
22503;DHT22;11418;48.118;9.992;2023-04-29T14:58:37;20.80;99.90
22503;DHT22;11418;48.118;9.992;2023-04-29T15:02:37;20.30;99.90
22503;DHT22;11418;48.118;9.992;2023-04-29T15:06:38;19.40;99.90
22503;DHT22;11418;48.118;9.992;2023-04-29T15:10:39;19.20;99.90
22503;DHT22;11418;48.118;9.992;2023-04-29T15:14:40;19.00;99.90
22503;DHT22;11418;48.118;9.992;2023-04-29T15:18:40;20.70;99.90
22503;DHT22;11418;48.118;9.992;2023-04-29T15:22:41;22.70;99.90
22503;DHT22;11418;48.118;9.992;2023-04-29T15:26:42;22.20;99.90
22503;DHT22;11418;48.118;9.992;2023-04-29T15:30:42;22.60;99.90
22503;DHT22;11418;48.118;9.992;2023-04-29T15:34:43;22.00;99.90
22503;DHT22;11418;48.118;9.992;2023-04-29T15:38:43;22.30;99.90
22503;DHT22;11418;48.118;9.992;2023-04-29T15:42:44;20.90;99.90
22503;DHT22;11418;48.118;9.992;2023-04-29T15:46:44;20.20;99.90
22503;DHT22;11418;48.118;9.992;2023-04-29T15:50:45;19.90;99.90
22503;DHT22;11418;48.118;9.992;2023-04-29T15:54:45;18.80;99.90
22503;DHT22;11418;48.118;9.992;2023-04-29T15:58:46;18.10;99.90
22503;DHT22;11418;48.118;9.992;2023-04-29T16:02:46;17.90;99.90
22503;DHT22;11418;48.118;9.992;2023-04-29T16:06:47;17.40;99.90
22503;DHT22;11418;48.118;9.992;2023-04-29T16:10:47;17.60;99.90
22503;DHT22;11418;48.118;9.992;2023-04-29T16:14:48;17.30;99.90
22503;DHT22;11418;48.118;9.992;2023-04-29T16:18:49;17.30;99.90
22503;DHT22;11418;48.118;9.992;2023-04-29T16:22:50;17.20;99.90
22503;DHT22;11418;48.118;9.992;2023-04-29T16:26:50;17.30;99.90
22503;DHT22;11418;48.118;9.992;2023-04-29T16:30:51;17.00;99.90
22503;DHT22;11418;48.118;9.992;2023-04-29T16:34:51;16.80;99.90
22503;DHT22;11418;48.118;9.992;2023-04-29T16:38:51;16.40;99.90
22503;DHT22;11418;48.118;9.992;2023-04-29T16:42:54;16.20;99.90
22503;DHT22;11418;48.118;9.992;2023-04-29T16:46:56;15.90;99.90
22503;DHT22;11418;48.118;9.992;2023-04-29T16:50:56;15.80;99.90
22503;DHT22;11418;48.118;9.992;2023-04-29T16:54:57;15.90;99.90
22503;DHT22;11418;48.118;9.992;2023-04-29T16:59:00;16.20;99.90
22503;DHT22;11418;48.118;9.992;2023-04-29T17:03:01;16.10;99.90
22503;DHT22;11418;48.118;9.992;2023-04-29T17:07:01;16.00;99.90
22503;DHT22;11418;48.118;9.992;2023-04-29T17:11:03;15.90;99.90
22503;DHT22;11418;48.118;9.992;2023-04-29T17:15:04;15.60;99.90
22503;DHT22;11418;48.118;9.992;2023-04-29T17:19:05;15.20;99.90
22503;DHT22;11418;48.118;9.992;2023-04-29T17:23:05;15.10;99.90
22503;DHT22;11418;48.118;9.992;2023-04-29T17:27:06;14.70;99.90
22503;DHT22;11418;48.118;9.992;2023-04-29T17:31:06;14.60;99.90
22503;DHT22;11418;48.118;9.992;2023-04-29T17:35:07;14.50;99.90
22503;DHT22;11418;48.118;9.992;2023-04-29T17:39:08;14.30;99.90
22503;DHT22;11418;48.118;9.992;2023-04-29T17:43:10;14.20;99.90
22503;DHT22;11418;48.118;9.992;2023-04-29T17:47:10;14.20;99.90
22503;DHT22;11418;48.118;9.992;2023-04-29T17:51:11;14.10;99.90
22503;DHT22;11418;48.118;9.992;2023-04-29T17:55:12;14.00;99.90
22503;DHT22;11418;48.118;9.992;2023-04-29T17:59:12;13.90;99.90
22503;DHT22;11418;48.118;9.992;2023-04-29T18:03:13;13.90;99.90
22503;DHT22;11418;48.118;9.992;2023-04-29T18:07:13;13.80;99.90
22503;DHT22;11418;48.118;9.992;2023-04-29T18:11:14;13.80;99.90
22503;DHT22;11418;48.118;9.992;2023-04-29T18:15:14;13.70;99.90
22503;DHT22;11418;48.118;9.992;2023-04-29T18:19:15;13.60;99.90
22503;DHT22;11418;48.118;9.992;2023-04-29T18:23:16;13.60;99.90
22503;DHT22;11418;48.118;9.992;2023-04-29T18:27:16;13.50;99.90
22503;DHT22;11418;48.118;9.992;2023-04-29T18:31:17;13.40;99.90
22503;DHT22;11418;48.118;9.992;2023-04-29T18:35:17;13.50;99.90
22503;DHT22;11418;48.118;9.992;2023-04-29T18:39:18;13.40;99.90
22503;DHT22;11418;48.118;9.992;2023-04-29T18:43:18;13.30;99.90
22503;DHT22;11418;48.118;9.992;2023-04-29T18:47:23;13.20;99.90
22503;DHT22;11418;48.118;9.992;2023-04-29T18:51:24;13.20;99.90
22503;DHT22;11418;48.118;9.992;2023-04-29T18:55:24;13.10;99.90
22503;DHT22;11418;48.118;9.992;2023-04-29T18:59:25;12.80;99.90
22503;DHT22;11418;48.118;9.992;2023-04-29T19:03:26;12.50;99.90
22503;DHT22;11418;48.118;9.992;2023-04-29T19:07:26;12.40;99.90
22503;DHT22;11418;48.118;9.992;2023-04-29T19:11:27;12.30;99.90
22503;DHT22;11418;48.118;9.992;2023-04-29T19:15:27;12.30;99.90
22503;DHT22;11418;48.118;9.992;2023-04-29T19:19:28;12.10;99.90
22503;DHT22;11418;48.118;9.992;2023-04-29T19:23:29;12.10;99.90
22503;DHT22;11418;48.118;9.992;2023-04-29T19:27:29;11.90;99.90
22503;DHT22;11418;48.118;9.992;2023-04-29T19:31:30;11.80;99.90
22503;DHT22;11418;48.118;9.992;2023-04-29T19:35:31;11.80;99.90
22503;DHT22;11418;48.118;9.992;2023-04-29T19:39:31;11.70;99.90
22503;DHT22;11418;48.118;9.992;2023-04-29T19:43:32;11.80;99.90
22503;DHT22;11418;48.118;9.992;2023-04-29T19:47:33;11.80;99.90
22503;DHT22;11418;48.118;9.992;2023-04-29T19:51:34;11.80;99.90
22503;DHT22;11418;48.118;9.992;2023-04-29T19:55:35;11.80;99.90
22503;DHT22;11418;48.118;9.992;2023-04-29T19:59:35;11.80;99.90
22503;DHT22;11418;48.118;9.992;2023-04-29T20:03:36;11.80;99.90
22503;DHT22;11418;48.118;9.992;2023-04-29T20:07:38;11.70;99.90
22503;DHT22;11418;48.118;9.992;2023-04-29T20:11:39;11.90;99.90
22503;DHT22;11418;48.118;9.992;2023-04-29T20:15:40;11.90;99.90
22503;DHT22;11418;48.118;9.992;2023-04-29T20:19:40;11.90;99.90
22503;DHT22;11418;48.118;9.992;2023-04-29T20:23:41;12.00;99.90
22503;DHT22;11418;48.118;9.992;2023-04-29T20:27:41;12.00;99.90
22503;DHT22;11418;48.118;9.992;2023-04-29T20:31:42;12.00;99.90
22503;DHT22;11418;48.118;9.992;2023-04-29T20:35:42;11.80;99.90
22503;DHT22;11418;48.118;9.992;2023-04-29T20:39:43;12.00;99.90
22503;DHT22;11418;48.118;9.992;2023-04-29T20:43:43;11.90;99.90
22503;DHT22;11418;48.118;9.992;2023-04-29T20:47:44;12.00;99.90
22503;DHT22;11418;48.118;9.992;2023-04-29T20:51:45;11.80;99.90
22503;DHT22;11418;48.118;9.992;2023-04-29T20:55:46;11.40;99.90
22503;DHT22;11418;48.118;9.992;2023-04-29T20:59:47;11.20;99.90
22503;DHT22;11418;48.118;9.992;2023-04-29T21:03:47;11.20;99.90
22503;DHT22;11418;48.118;9.992;2023-04-29T21:07:48;11.30;99.90
22503;DHT22;11418;48.118;9.992;2023-04-29T21:11:48;11.40;99.90
22503;DHT22;11418;48.118;9.992;2023-04-29T21:15:49;11.50;99.90
22503;DHT22;11418;48.118;9.992;2023-04-29T21:19:50;11.50;99.90
22503;DHT22;11418;48.118;9.992;2023-04-29T21:23:50;11.60;99.90
22503;DHT22;11418;48.118;9.992;2023-04-29T21:27:51;11.50;99.90
22503;DHT22;11418;48.118;9.992;2023-04-29T21:31:51;11.50;99.90
22503;DHT22;11418;48.118;9.992;2023-04-29T21:35:51;11.50;99.90
22503;DHT22;11418;48.118;9.992;2023-04-29T21:39:52;11.40;99.90
22503;DHT22;11418;48.118;9.992;2023-04-29T21:43:57;11.70;99.90
22503;DHT22;11418;48.118;9.992;2023-04-29T21:47:58;11.60;99.90
22503;DHT22;11418;48.118;9.992;2023-04-29T21:52:02;11.50;99.90
22503;DHT22;11418;48.118;9.992;2023-04-29T21:56:04;11.30;99.90
22503;DHT22;11418;48.118;9.992;2023-04-29T22:00:06;11.40;99.90
22503;DHT22;11418;48.118;9.992;2023-04-29T22:04:18;11.50;99.90
22503;DHT22;11418;48.118;9.992;2023-04-29T22:08:19;11.70;99.90
22503;DHT22;11418;48.118;9.992;2023-04-29T22:12:20;11.70;99.90
22503;DHT22;11418;48.118;9.992;2023-04-29T22:16:21;11.60;99.90
22503;DHT22;11418;48.118;9.992;2023-04-29T22:20:22;11.70;99.90
22503;DHT22;11418;48.118;9.992;2023-04-29T22:24:23;11.70;99.90
22503;DHT22;11418;48.118;9.992;2023-04-29T22:28:23;11.80;99.90
22503;DHT22;11418;48.118;9.992;2023-04-29T22:32:24;11.60;99.90
22503;DHT22;11418;48.118;9.992;2023-04-29T22:36:24;11.40;99.90
22503;DHT22;11418;48.118;9.992;2023-04-29T22:40:25;11.40;99.90
22503;DHT22;11418;48.118;9.992;2023-04-29T22:44:25;11.20;99.90
22503;DHT22;11418;48.118;9.992;2023-04-29T22:48:26;11.20;99.90
22503;DHT22;11418;48.118;9.992;2023-04-29T22:52:27;11.20;99.90
22503;DHT22;11418;48.118;9.992;2023-04-29T22:56:27;11.20;99.90
22503;DHT22;11418;48.118;9.992;2023-04-29T23:00:28;11.30;99.90
22503;DHT22;11418;48.118;9.992;2023-04-29T23:04:28;11.20;99.90
22503;DHT22;11418;48.118;9.992;2023-04-29T23:08:29;11.00;99.90
22503;DHT22;11418;48.118;9.992;2023-04-29T23:12:30;10.90;99.90
22503;DHT22;11418;48.118;9.992;2023-04-29T23:16:30;11.00;99.90
22503;DHT22;11418;48.118;9.992;2023-04-29T23:20:31;11.10;99.90
22503;DHT22;11418;48.118;9.992;2023-04-29T23:24:32;11.10;99.90
22503;DHT22;11418;48.118;9.992;2023-04-29T23:28:34;11.00;99.90
22503;DHT22;11418;48.118;9.992;2023-04-29T23:32:34;10.90;99.90
22503;DHT22;11418;48.118;9.992;2023-04-29T23:36:35;10.90;99.90
22503;DHT22;11418;48.118;9.992;2023-04-29T23:40:35;10.90;99.90
22503;DHT22;11418;48.118;9.992;2023-04-29T23:44:36;11.00;99.90
22503;DHT22;11418;48.118;9.992;2023-04-29T23:48:38;11.00;99.90
22503;DHT22;11418;48.118;9.992;2023-04-29T23:52:38;10.90;99.90
22503;DHT22;11418;48.118;9.992;2023-04-29T23:56:39;10.90;99.90
